Time;durP1;ratioP1;P1;durP2;ratioP2;P2;SDS_P1;SDS_P2;PMS_P1;PMS_P2;Temp;Humidity;BMP_temperature;BMP_pressure;BME280_temperature;BME280_humidity;BME280_pressure;Samples;Min_cycle;Max_cycle;Signal;HPM_P1;HPM_P2
2022/11/06 00:00:16;;;;;;;16.45;13.32;;;12.30;99.90;;;;;;5070727;28;20032;-51
2022/11/06 00:02:42;;;;;;;17.60;14.65;;;12.30;99.90;;;;;;5068781;28;20033;-52
2022/11/06 00:07:53;;;;;;;18.33;14.40;;;12.20;99.90;;;;;;5083634;28;20088;-51
2022/11/06 00:10:19;;;;;;;22.30;14.15;;;11.90;99.90;;;;;;5070109;28;20028;-52
2022/11/06 00:12:45;;;;;;;16.52;12.98;;;11.90;99.90;;;;;;5070424;28;20047;-52
2022/11/06 00:15:11;;;;;;;19.95;14.60;;;11.70;99.90;;;;;;5070569;28;20033;-52
2022/11/06 00:17:37;;;;;;;17.58;12.43;;;;;;;;;;5072136;28;20056;-52
2022/11/06 00:20:08;;;;;;;19.90;14.63;;;11.80;99.90;;;;;;5074663;28;20028;-53
2022/11/06 00:22:37;;;;;;;19.33;15.38;;;11.90;99.90;;;;;;5047936;28;20049;-54
2022/11/06 00:25:06;;;;;;;17.48;14.13;;;12.00;99.90;;;;;;5067447;28;20042;-53
2022/11/06 00:27:36;;;;;;;22.67;14.40;;;11.90;99.90;;;;;;5064475;28;20043;-53
2022/11/06 00:30:03;;;;;;;21.10;14.93;;;12.00;99.90;;;;;;5068051;28;20028;-53
2022/11/06 00:32:29;;;;;;;16.85;13.65;;;12.00;99.90;;;;;;5069380;28;20029;-53
2022/11/06 00:34:55;;;;;;;16.90;13.35;;;12.00;99.90;;;;;;5085444;28;20352;-53
2022/11/06 00:37:21;;;;;;;18.48;15.13;;;11.90;99.90;;;;;;5080108;28;20153;-53
2022/11/06 00:39:46;;;;;;;20.90;14.85;;;11.90;99.90;;;;;;5082684;28;20197;-52
2022/11/06 00:42:12;;;;;;;20.60;14.98;;;11.90;99.90;;;;;;5066421;28;20043;-52
2022/11/06 00:44:38;;;;;;;19.10;15.55;;;11.80;99.90;;;;;;5088901;28;20051;-53
2022/11/06 00:47:04;;;;;;;20.55;15.68;;;11.90;99.90;;;;;;5079052;28;20023;-53
2022/11/06 00:49:30;;;;;;;20.27;14.57;;;11.90;99.90;;;;;;5078161;28;20107;-52
2022/11/06 00:51:56;;;;;;;20.80;15.32;;;11.90;99.90;;;;;;5057632;28;20559;-53
2022/11/06 00:54:21;;;;;;;22.35;15.73;;;11.90;99.90;;;;;;5085745;28;20099;-52
2022/11/06 00:56:47;;;;;;;20.80;16.00;;;12.00;99.90;;;;;;5074651;28;20128;-53
2022/11/06 00:59:13;;;;;;;22.38;15.27;;;12.00;99.90;;;;;;5077698;28;20388;-53
2022/11/06 01:01:42;;;;;;;22.15;15.40;;;12.00;99.90;;;;;;5088326;28;20020;-52
2022/11/06 01:04:11;;;;;;;21.02;14.57;;;12.00;99.90;;;;;;5081632;28;20105;-53
2022/11/06 01:06:45;;;;;;;21.58;15.00;;;11.90;99.90;;;;;;5078677;28;20051;-52
2022/11/06 01:09:13;;;;;;;22.25;14.90;;;11.90;99.90;;;;;;5070391;28;20476;-52
2022/11/06 01:11:41;;;;;;;19.70;14.55;;;11.90;99.90;;;;;;5080153;28;20024;-52
2022/11/06 01:14:10;;;;;;;23.70;15.88;;;11.80;99.90;;;;;;5086729;28;20028;-52
2022/11/06 01:16:35;;;;;;;19.20;14.57;;;11.80;99.90;;;;;;5078495;28;20032;-52
2022/11/06 01:19:01;;;;;;;20.63;16.20;;;11.80;99.90;;;;;;5059873;28;20044;-52
2022/11/06 01:21:36;;;;;;;23.20;15.68;;;11.90;99.90;;;;;;5085081;28;20033;-52
2022/11/06 01:24:05;;;;;;;24.05;14.48;;;11.90;99.90;;;;;;5035186;28;20033;-53
2022/11/06 01:26:32;;;;;;;20.08;15.48;;;11.90;99.90;;;;;;5055977;28;20076;-53
2022/11/06 01:28:58;;;;;;;24.08;14.98;;;;;;;;;;5074195;28;20024;-53
2022/11/06 01:31:26;;;;;;;24.38;16.15;;;11.90;99.90;;;;;;5075112;28;20032;-53
2022/11/06 01:33:57;;;;;;;24.63;16.17;;;11.90;99.90;;;;;;5073226;28;20024;-53
2022/11/06 01:36:23;;;;;;;26.40;16.48;;;11.90;99.90;;;;;;5078598;28;20040;-53
2022/11/06 01:38:51;;;;;;;22.13;14.80;;;11.90;99.90;;;;;;5083558;28;20028;-54
2022/11/06 01:41:38;;;;;;;22.50;15.77;;;11.80;99.90;;;;;;5078906;28;20479;-54
2022/11/06 01:44:26;;;;;;;24.08;15.65;;;11.90;99.90;;;;;;5062886;28;20035;-53
2022/11/06 01:46:51;;;;;;;22.42;16.02;;;11.70;99.90;;;;;;5077117;28;20024;-53
2022/11/06 01:49:17;;;;;;;21.02;13.98;;;11.80;99.90;;;;;;5061549;28;20064;-54
2022/11/06 01:51:52;;;;;;;20.10;13.55;;;11.70;99.90;;;;;;5082289;28;20028;-53
2022/11/06 01:54:20;;;;;;;24.83;16.92;;;11.60;99.90;;;;;;5077833;28;20033;-53
2022/11/06 01:56:49;;;;;;;26.08;16.33;;;11.60;99.90;;;;;;5079799;28;20064;-52
2022/11/06 01:59:18;;;;;;;17.67;11.60;;;11.70;99.90;;;;;;5072015;28;20372;-53
2022/11/06 02:01:44;;;;;;;28.10;16.05;;;11.60;99.90;;;;;;5074771;28;20032;-53
2022/11/06 02:04:19;;;;;;;24.48;16.00;;;11.50;99.90;;;;;;5075838;28;20052;-52
2022/11/06 02:06:46;;;;;;;27.70;16.50;;;11.50;99.90;;;;;;5060960;28;20435;-52
2022/11/06 02:09:13;;;;;;;19.55;13.98;;;11.50;99.90;;;;;;5076559;28;20025;-52
2022/11/06 02:11:42;;;;;;;25.45;16.73;;;11.40;99.90;;;;;;5077260;28;20029;-52
2022/11/06 02:14:20;;;;;;;26.23;16.48;;;11.40;99.90;;;;;;5086231;28;20028;-52
2022/11/06 02:16:48;;;;;;;25.63;16.05;;;11.50;99.90;;;;;;5079082;28;20047;-52
2022/11/06 02:19:23;;;;;;;27.98;16.80;;;11.40;99.90;;;;;;5078085;28;20387;-53
2022/11/06 02:22:21;;;;;;;27.33;16.70;;;11.50;99.90;;;;;;5082783;28;20028;-53
2022/11/06 02:25:23;;;;;;;24.58;17.30;;;11.60;99.90;;;;;;5029102;28;20048;-52
2022/11/06 02:28:07;;;;;;;26.92;16.58;;;11.70;99.90;;;;;;5029382;28;20045;-53
2022/11/06 02:30:38;;;;;;;27.98;16.45;;;11.80;99.90;;;;;;5028951;28;20511;-52
2022/11/06 02:33:10;;;;;;;26.13;16.13;;;11.80;99.90;;;;;;5029218;28;20036;-53
2022/11/06 02:35:55;;;;;;;23.45;15.82;;;11.80;99.90;;;;;;5032113;28;20036;-52
2022/11/06 02:38:32;;;;;;;20.23;12.88;;;11.80;99.90;;;;;;5029322;28;20045;-52
2022/11/06 02:41:02;;;;;;;25.90;16.48;;;11.80;99.90;;;;;;5030618;28;20077;-52
2022/11/06 02:43:34;;;;;;;28.42;16.25;;;11.90;99.90;;;;;;5030716;28;20041;-52
2022/11/06 02:46:08;;;;;;;24.48;14.95;;;12.00;99.90;;;;;;5028413;28;20064;-52
2022/11/06 02:48:41;;;;;;;19.17;12.18;;;11.80;99.90;;;;;;5030525;28;20042;-51
2022/11/06 02:51:12;;;;;;;26.40;14.85;;;11.70;99.90;;;;;;5028887;28;20029;-52
2022/11/06 02:53:41;;;;;;;16.77;12.98;;;11.70;99.90;;;;;;5030662;28;20033;-53
2022/11/06 02:56:20;;;;;;;25.15;15.25;;;11.60;99.90;;;;;;5030521;28;20053;-52
2022/11/06 02:58:56;;;;;;;21.63;13.90;;;11.70;99.90;;;;;;5028046;28;20049;-52
2022/11/06 03:01:38;;;;;;;22.23;14.10;;;11.70;99.90;;;;;;5069139;28;20123;-52
2022/11/06 03:04:21;;;;;;;16.20;11.02;;;11.70;99.90;;;;;;5074035;28;20048;-51
2022/11/06 03:07:07;;;;;;;19.73;12.27;;;11.70;99.90;;;;;;5083984;28;20027;-53
2022/11/06 03:09:34;;;;;;;21.38;13.50;;;11.70;99.90;;;;;;5075286;28;20364;-52
2022/11/06 03:12:37;;;;;;;22.85;14.23;;;11.60;99.90;;;;;;5082850;28;20555;-52
2022/11/06 03:15:26;;;;;;;21.17;13.50;;;11.60;99.90;;;;;;5074627;28;20467;-52
2022/11/06 03:18:17;;;;;;;24.45;14.02;;;11.60;99.90;;;;;;5080676;28;20035;-52
2022/11/06 03:21:06;;;;;;;22.67;13.98;;;11.50;99.90;;;;;;5017063;28;20037;-52
2022/11/06 03:23:41;;;;;;;20.02;13.45;;;11.60;99.90;;;;;;5018554;28;20026;-53
2022/11/06 03:26:36;;;;;;;20.30;13.52;;;11.50;99.90;;;;;;5010414;28;20078;-52
2022/11/06 03:29:20;;;;;;;22.52;13.75;;;11.70;99.90;;;;;;4930021;29;20039;-52
2022/11/06 03:31:52;;;;;;;21.15;13.27;;;11.70;99.90;;;;;;4935664;29;20043;-52
2022/11/06 03:34:40;;;;;;;21.25;14.20;;;11.90;99.90;;;;;;4930804;29;20105;-52
2022/11/06 03:37:13;;;;;;;20.83;12.40;;;11.80;99.90;;;;;;4939822;29;20039;-53
2022/11/06 03:39:45;;;;;;;20.92;13.20;;;11.80;99.90;;;;;;4934399;29;20389;-53
2022/11/06 03:42:20;;;;;;;22.23;13.48;;;11.90;99.90;;;;;;4939290;29;20483;-52
2022/11/06 03:44:51;;;;;;;21.88;12.73;;;11.90;99.90;;;;;;4937307;29;20062;-54
2022/11/06 03:47:23;;;;;;;26.57;13.37;;;11.80;99.90;;;;;;4932105;29;20051;-53
2022/11/06 03:50:06;;;;;;;21.60;13.55;;;11.90;99.90;;;;;;4940629;29;20422;-53
2022/11/06 03:52:37;;;;;;;22.40;12.85;;;11.80;99.90;;;;;;4939053;29;20052;-53
2022/11/06 03:55:14;;;;;;;21.25;13.55;;;11.90;99.90;;;;;;4941236;29;20047;-53
2022/11/06 03:57:50;;;;;;;18.08;11.05;;;11.80;99.90;;;;;;4946014;28;20103;-53
2022/11/06 04:00:19;;;;;;;19.65;12.82;;;11.80;99.90;;;;;;4978781;28;20406;-53
2022/11/06 04:03:03;;;;;;;18.33;11.50;;;11.60;99.90;;;;;;4973343;28;20100;-53
2022/11/06 04:05:34;;;;;;;18.23;11.55;;;11.60;99.90;;;;;;4982898;28;20057;-53
2022/11/06 04:14:03;;;;;;;18.13;12.75;;;11.70;99.90;;;;;;5012916;28;20091;-53
2022/11/06 04:16:38;;;;;;;22.30;12.13;;;11.60;99.90;;;;;;5041042;28;20088;-53
2022/11/06 04:19:15;;;;;;;21.17;12.50;;;11.70;99.90;;;;;;5029786;28;20103;-52
2022/11/06 04:22:05;;;;;;;15.35;10.55;;;11.70;99.90;;;;;;5046322;28;20412;-53
2022/11/06 04:28:00;;;;;;;20.13;11.07;;;11.60;99.90;;;;;;5073105;28;20047;-54
2022/11/06 04:30:31;;;;;;;18.60;11.48;;;11.50;99.90;;;;;;5067809;28;20013;-52
2022/11/06 04:33:03;;;;;;;14.20;9.43;;;11.50;99.90;;;;;;5072096;28;20444;-53
2022/11/06 04:35:28;;;;;;;17.40;10.32;;;11.40;99.90;;;;;;5071814;28;20101;-54
2022/11/06 04:38:20;;;;;;;14.77;9.57;;;11.40;99.90;;;;;;5082236;28;20069;-52
2022/11/06 04:41:17;;;;;;;15.23;8.88;;;11.40;99.90;;;;;;5082120;28;20032;-52
2022/11/06 04:43:53;;;;;;;15.77;10.15;;;11.40;99.90;;;;;;5016556;28;20037;-52
2022/11/06 04:46:46;;;;;;;15.07;10.38;;;11.40;99.90;;;;;;5013560;28;20109;-52
2022/11/06 04:49:13;;;;;;;18.58;11.02;;;11.60;99.90;;;;;;4951174;29;20035;-53
2022/11/06 04:51:39;;;;;;;18.20;12.57;;;11.70;99.90;;;;;;4916732;29;20106;-53
2022/11/06 04:54:07;;;;;;;14.93;9.45;;;11.70;99.90;;;;;;4951356;29;20051;-53
2022/11/06 04:56:35;;;;;;;15.25;11.00;;;11.60;99.90;;;;;;4951587;29;20035;-52
2022/11/06 04:59:03;;;;;;;12.63;9.65;;;11.70;99.90;;;;;;4952265;29;20078;-52
2022/11/06 05:01:29;;;;;;;16.75;10.23;;;11.70;99.90;;;;;;4951376;29;20039;-53
2022/11/06 05:03:54;;;;;;;17.05;9.85;;;11.80;99.90;;;;;;4922753;29;20074;-52
2022/11/06 05:06:20;;;;;;;18.50;11.43;;;11.70;99.90;;;;;;4952096;28;20047;-52
2022/11/06 05:08:46;;;;;;;16.63;10.52;;;11.70;99.90;;;;;;4951466;29;20038;-52
2022/11/06 05:11:12;;;;;;;17.67;10.65;;;11.70;99.90;;;;;;4951319;29;20035;-53
2022/11/06 05:13:38;;;;;;;20.63;10.35;;;11.60;99.90;;;;;;4951851;29;20058;-53
2022/11/06 05:16:04;;;;;;;14.50;10.48;;;11.60;99.90;;;;;;4950750;29;20122;-53
2022/11/06 05:18:30;;;;;;;12.30;7.93;;;11.50;99.90;;;;;;4919704;29;20046;-53
2022/11/06 05:23:44;;;;;;;16.08;9.43;;;11.50;99.90;;;;;;5010916;28;20080;-53
2022/11/06 05:26:10;;;;;;;21.08;10.15;;;11.50;99.90;;;;;;5038656;28;20123;-53
2022/11/06 05:28:36;;;;;;;16.35;9.75;;;11.50;99.90;;;;;;5080638;28;20040;-53
2022/11/06 05:31:01;;;;;;;15.55;9.80;;;11.40;99.90;;;;;;5070849;28;20029;-53
2022/11/06 05:33:27;;;;;;;13.35;9.23;;;11.50;99.90;;;;;;5059533;28;20040;-52
2022/11/06 05:35:53;;;;;;;16.13;10.48;;;11.40;99.90;;;;;;5049822;28;20097;-53
2022/11/06 05:38:19;;;;;;;12.48;8.35;;;11.50;99.90;;;;;;5084329;28;20380;-53
2022/11/06 05:40:45;;;;;;;15.80;9.50;;;11.40;99.90;;;;;;5077141;28;20091;-53
2022/11/06 05:43:11;;;;;;;16.35;9.98;;;11.40;99.90;;;;;;5075752;28;20060;-53
2022/11/06 05:45:37;;;;;;;10.57;6.50;;;11.40;99.90;;;;;;5073627;28;20426;-54
2022/11/06 05:48:03;;;;;;;16.95;9.70;;;11.40;99.90;;;;;;5083067;28;20024;-53
2022/11/06 05:50:28;;;;;;;8.80;6.35;;;11.30;99.90;;;;;;5079627;28;20373;-53
2022/11/06 05:52:54;;;;;;;14.32;9.30;;;11.30;99.90;;;;;;5082498;28;20379;-52
2022/11/06 05:55:20;;;;;;;15.55;9.25;;;11.40;99.90;;;;;;5074861;28;20032;-52
2022/11/06 05:57:45;;;;;;;15.63;10.25;;;11.40;99.90;;;;;;5040591;28;20049;-52
2022/11/06 06:00:12;;;;;;;17.38;9.45;;;11.50;99.90;;;;;;5077214;28;20097;-52
2022/11/06 06:02:38;;;;;;;13.40;8.75;;;11.60;99.90;;;;;;5059253;28;20128;-52
2022/11/06 06:05:05;;;;;;;10.50;7.00;;;11.60;99.90;;;;;;5014585;28;20135;-52
2022/11/06 06:07:31;;;;;;;16.15;9.90;;;11.50;99.90;;;;;;5040232;28;20404;-53
2022/11/06 06:09:57;;;;;;;9.10;5.60;;;11.50;99.90;;;;;;5049416;28;20025;-53
2022/11/06 06:12:25;;;;;;;14.13;8.75;;;11.50;99.90;;;;;;5044158;28;20431;-53
2022/11/06 06:14:51;;;;;;;9.75;6.53;;;11.60;99.90;;;;;;5054319;28;20108;-53
2022/11/06 06:17:17;;;;;;;11.73;7.90;;;11.60;99.90;;;;;;5052502;28;20290;-52
2022/11/06 06:19:43;;;;;;;12.13;8.25;;;11.60;99.90;;;;;;5024346;28;20072;-52
2022/11/06 06:22:09;;;;;;;12.88;7.90;;;11.70;99.90;;;;;;5054217;28;20484;-53
2022/11/06 06:24:35;;;;;;;12.10;7.63;;;11.70;99.90;;;;;;5040426;28;20040;-52
2022/11/06 06:27:01;;;;;;;9.63;6.38;;;11.60;99.90;;;;;;5041665;28;20060;-53
2022/11/06 06:29:27;;;;;;;10.02;6.15;;;11.70;99.90;;;;;;4997498;28;20155;-54
2022/11/06 06:31:52;;;;;;;7.88;5.13;;;11.60;99.90;;;;;;5000780;28;20033;-53
2022/11/06 06:34:18;;;;;;;10.23;6.57;;;11.40;99.90;;;;;;4978879;28;20042;-53
2022/11/06 06:36:48;;;;;;;10.20;6.97;;;11.50;99.90;;;;;;5017208;28;20098;-52
2022/11/06 06:39:14;;;;;;;11.30;5.50;;;11.50;99.90;;;;;;5018101;28;20117;-52
2022/11/06 06:41:40;;;;;;;7.57;6.05;;;11.50;99.90;;;;;;5018684;28;20468;-52
2022/11/06 06:44:05;;;;;;;9.40;5.97;;;11.40;99.90;;;;;;4978698;28;20126;-54
2022/11/06 06:46:32;;;;;;;8.30;6.30;;;;;;;;;;5028357;28;20033;-54
2022/11/06 06:48:58;;;;;;;12.15;6.63;;;11.40;99.90;;;;;;5026087;28;20046;-52
2022/11/06 06:51:24;;;;;;;9.07;6.43;;;11.40;99.90;;;;;;4994503;28;20034;-54
2022/11/06 06:53:50;;;;;;;6.25;4.80;;;11.40;99.90;;;;;;5014476;28;20029;-53
2022/11/06 06:56:15;;;;;;;7.72;5.97;;;11.20;99.90;;;;;;5028618;28;20405;-52
2022/11/06 06:58:41;;;;;;;10.55;6.63;;;11.20;99.90;;;;;;5026946;28;20087;-53
2022/11/06 07:01:10;;;;;;;10.00;6.28;;;11.20;99.90;;;;;;5061458;28;20041;-54
2022/11/06 07:03:37;;;;;;;11.70;7.53;;;11.30;99.90;;;;;;5016412;28;20070;-54
2022/11/06 07:06:04;;;;;;;10.40;6.15;;;11.40;99.90;;;;;;5069206;28;20029;-54
2022/11/06 07:08:30;;;;;;;11.93;7.45;;;11.30;99.90;;;;;;5047473;28;20043;-54
2022/11/06 07:11:04;;;;;;;9.57;6.65;;;11.40;99.90;;;;;;5038821;28;20039;-53
2022/11/06 07:13:29;;;;;;;9.38;6.80;;;11.40;99.90;;;;;;5071386;28;20032;-54
2022/11/06 07:15:55;;;;;;;10.15;6.22;;;11.50;99.90;;;;;;5069617;28;20035;-52
2022/11/06 07:18:21;;;;;;;9.38;7.00;;;11.40;99.90;;;;;;5067069;28;20144;-54
2022/11/06 07:20:47;;;;;;;8.77;6.22;;;11.40;99.90;;;;;;5080630;28;20023;-53
2022/11/06 07:23:13;;;;;;;8.48;5.25;;;11.50;99.90;;;;;;5083654;28;20484;-53
2022/11/06 07:25:38;;;;;;;11.13;6.53;;;11.20;99.90;;;;;;5060571;28;20025;-54
2022/11/06 07:28:06;;;;;;;9.70;6.05;;;11.30;99.90;;;;;;5052872;28;20029;-54
2022/11/06 07:30:33;;;;;;;11.23;7.28;;;11.40;99.90;;;;;;5079668;28;20032;-53
2022/11/06 07:33:01;;;;;;;10.50;6.35;;;11.50;99.90;;;;;;5080820;28;20091;-53
2022/11/06 07:35:27;;;;;;;9.93;6.70;;;11.50;99.90;;;;;;5061402;28;20075;-53
2022/11/06 07:37:53;;;;;;;10.40;5.93;;;11.50;99.90;;;;;;5072684;28;20113;-53
2022/11/06 07:40:18;;;;;;;9.90;6.43;;;11.40;99.90;;;;;;5057375;28;20450;-52
2022/11/06 07:42:44;;;;;;;8.98;6.80;;;11.50;99.90;;;;;;5058275;28;20083;-53
2022/11/06 07:45:10;;;;;;;10.02;7.50;;;11.50;99.90;;;;;;5048750;28;20593;-51
2022/11/06 07:47:36;;;;;;;10.40;6.95;;;11.60;99.90;;;;;;5043378;28;20042;-55
2022/11/06 07:50:02;;;;;;;11.25;6.47;;;11.60;99.90;;;;;;5036951;28;20036;-54
2022/11/06 07:52:28;;;;;;;8.00;5.68;;;11.70;99.90;;;;;;5026378;28;20129;-50
2022/11/06 07:54:53;;;;;;;10.95;7.38;;;11.70;99.90;;;;;;5056706;28;20099;-50
2022/11/06 07:57:19;;;;;;;10.55;6.68;;;11.70;99.90;;;;;;5018562;28;20044;-50
2022/11/06 07:59:45;;;;;;;13.35;7.45;;;11.70;99.90;;;;;;5025852;28;20032;-52
2022/11/06 08:02:12;;;;;;;7.93;4.95;;;11.70;99.90;;;;;;5051618;28;20172;-52
2022/11/06 08:04:38;;;;;;;9.23;6.35;;;11.70;99.90;;;;;;5058487;28;20109;-50
2022/11/06 08:07:04;;;;;;;9.38;6.35;;;11.80;99.90;;;;;;5052284;28;20509;-52
2022/11/06 08:09:30;;;;;;;7.18;5.25;;;11.80;99.90;;;;;;5018191;28;20029;-50
2022/11/06 08:11:56;;;;;;;8.63;5.85;;;11.70;99.90;;;;;;5038535;28;20040;-50
2022/11/06 08:14:22;;;;;;;7.75;5.53;;;11.80;99.90;;;;;;5053852;28;20029;-50
2022/11/06 08:16:48;;;;;;;10.05;6.95;;;11.80;99.90;;;;;;5028579;28;20107;-50
2022/11/06 08:19:13;;;;;;;9.48;6.20;;;11.80;99.90;;;;;;5081428;28;20356;-50
2022/11/06 08:21:39;;;;;;;9.60;6.30;;;11.80;99.90;;;;;;5082104;28;20396;-50
2022/11/06 08:24:05;;;;;;;9.40;7.50;;;11.80;99.90;;;;;;5072637;28;20154;-50
2022/11/06 08:26:32;;;;;;;9.23;7.00;;;11.90;99.90;;;;;;5051806;28;20125;-49
2022/11/06 08:28:57;;;;;;;39.85;26.17;;;11.70;99.90;;;;;;5076950;28;20381;-49
2022/11/06 08:31:24;;;;;;;58.22;48.92;;;11.70;99.90;;;;;;5068711;28;20205;-50
2022/11/06 08:33:49;;;;;;;22.88;19.33;;;11.70;99.90;;;;;;5075451;28;20021;-52
2022/11/06 08:36:15;;;;;;;21.35;16.10;;;11.60;99.90;;;;;;5066219;28;20036;-50
2022/11/06 08:38:41;;;;;;;11.07;7.43;;;11.60;99.90;;;;;;5070136;28;20035;-51
2022/11/06 08:41:10;;;;;;;9.27;7.05;;;11.60;99.90;;;;;;5070285;28;20025;-49
2022/11/06 08:43:36;;;;;;;15.20;11.05;;;11.60;99.90;;;;;;5070818;28;20034;-51
2022/11/06 08:46:04;;;;;;;15.90;11.45;;;11.60;99.90;;;;;;5017530;28;20053;-50
2022/11/06 08:48:30;;;;;;;15.90;11.27;;;11.60;99.90;;;;;;5050932;28;20036;-51
2022/11/06 08:50:55;;;;;;;16.85;11.52;;;11.70;99.90;;;;;;5077494;28;20114;-51
2022/11/06 08:53:21;;;;;;;16.73;12.73;;;11.70;99.90;;;;;;5073871;28;20044;-51
2022/11/06 08:55:47;;;;;;;10.75;8.48;;;11.90;99.90;;;;;;5069103;28;20060;-52
2022/11/06 08:58:13;;;;;;;11.60;9.27;;;11.90;99.90;;;;;;5080669;28;20078;-51
2022/11/06 09:00:38;;;;;;;16.65;13.18;;;11.80;99.90;;;;;;5076731;28;20468;-52
2022/11/06 09:03:07;;;;;;;13.43;11.32;;;11.90;99.90;;;;;;5046345;28;20044;-53
2022/11/06 09:05:32;;;;;;;11.52;9.63;;;12.00;99.90;;;;;;5046012;28;20064;-51
2022/11/06 09:07:59;;;;;;;12.18;9.63;;;12.10;99.90;;;;;;5053717;28;20083;-52
2022/11/06 09:10:26;;;;;;;12.27;9.98;;;12.10;99.90;;;;;;5008643;28;20038;-51
2022/11/06 09:12:52;;;;;;;12.00;10.75;;;12.10;99.90;;;;;;4952173;28;20035;-52
2022/11/06 09:15:21;;;;;;;9.30;7.80;;;12.20;99.90;;;;;;4972664;28;20051;-51
2022/11/06 09:17:48;;;;;;;9.25;8.02;;;12.30;99.90;;;;;;4967227;28;20053;-52
2022/11/06 09:20:16;;;;;;;8.50;7.45;;;12.30;99.90;;;;;;4967071;28;20035;-51
2022/11/06 09:22:42;;;;;;;8.05;6.65;;;12.30;99.90;;;;;;4963808;28;20046;-51
2022/11/06 09:25:08;;;;;;;13.30;9.20;;;12.20;99.90;;;;;;4969460;28;20039;-50
2022/11/06 09:27:41;;;;;;;11.35;8.63;;;12.30;99.90;;;;;;4964829;28;20531;-51
2022/11/06 09:30:08;;;;;;;8.10;6.00;;;12.30;99.90;;;;;;4955754;28;20085;-49
2022/11/06 09:32:34;;;;;;;7.40;6.55;;;12.30;99.90;;;;;;4967593;28;20483;-50
2022/11/06 09:34:59;;;;;;;9.25;6.55;;;12.30;99.90;;;;;;4987419;28;20034;-49
2022/11/06 09:37:25;;;;;;;7.40;5.93;;;12.40;99.90;;;;;;4986865;28;20474;-50
2022/11/06 09:39:51;;;;;;;5.53;4.75;;;12.40;99.90;;;;;;4985819;28;20038;-54
2022/11/06 09:42:37;;;;;;;6.60;4.78;;;12.30;99.90;;;;;;4926546;28;20041;-53
2022/11/06 09:45:21;;;;;;;5.47;4.57;;;12.30;99.90;;;;;;4955308;28;20403;-50
2022/11/06 09:47:53;;;;;;;4.75;4.15;;;12.30;99.90;;;;;;4972692;28;20053;-52
2022/11/06 09:50:25;;;;;;;7.03;4.97;;;12.20;99.90;;;;;;4991449;28;20065;-52
2022/11/06 09:52:54;;;;;;;7.90;5.28;;;12.10;99.90;;;;;;4990545;28;20038;-52
2022/11/06 09:55:40;;;;;;;4.80;4.22;;;12.10;99.90;;;;;;4993162;28;20038;-52
2022/11/06 09:58:24;;;;;;;6.07;4.45;;;12.10;99.90;;;;;;4991617;28;20038;-52
2022/11/06 10:00:52;;;;;;;3.50;3.10;;;12.10;99.90;;;;;;4992174;28;20088;-52
2022/11/06 10:03:34;;;;;;;6.07;4.70;;;12.10;99.90;;;;;;4972939;28;20134;-53
2022/11/06 10:06:00;;;;;;;;;;;12.00;99.90;;;;;;4966513;28;20439;-53
2022/11/06 10:08:28;;;;;;;5.70;4.93;;;11.80;99.90;;;;;;4963812;28;19910;-52
2022/11/06 10:11:01;;;;;;;13.27;10.18;;;11.80;99.90;;;;;;4960865;28;20042;-53
2022/11/06 10:13:45;;;;;;;8.35;6.32;;;12.00;99.90;;;;;;4965463;28;20041;-52
2022/11/06 10:16:25;;;;;;;5.70;4.70;;;12.00;99.90;;;;;;4965642;28;20039;-53
2022/11/06 10:18:51;;;;;;;6.65;5.03;;;12.00;99.90;;;;;;4962697;28;20506;-54
2022/11/06 10:21:28;;;;;;;7.50;6.53;;;12.10;99.90;;;;;;4966701;28;20061;-55
2022/11/06 10:23:59;;;;;;;6.40;5.38;;;12.20;99.90;;;;;;5033159;28;20470;-53
2022/11/06 10:26:36;;;;;;;5.95;5.35;;;12.40;99.90;;;;;;4977193;28;20046;-54
2022/11/06 10:29:11;;;;;;;5.22;4.28;;;12.40;99.90;;;;;;4977608;28;20030;-54
2022/11/06 10:32:01;;;;;;;5.07;4.57;;;12.20;99.90;;;;;;4998615;28;20034;-54
2022/11/06 10:34:34;;;;;;;7.13;4.78;;;12.30;99.90;;;;;;5026468;28;20037;-53
2022/11/06 10:37:15;;;;;;;5.80;4.80;;;12.30;99.90;;;;;;5033039;28;20041;-52
2022/11/06 10:39:41;;;;;;;6.47;4.90;;;12.30;99.90;;;;;;5035832;28;20090;-55
2022/11/06 10:42:19;;;;;;;8.05;7.25;;;12.40;99.90;;;;;;5032987;28;20038;-54
2022/11/06 10:45:04;;;;;;;6.60;4.22;;;12.50;99.90;;;;;;5032774;28;20029;-54
2022/11/06 10:47:46;;;;;;;8.00;6.55;;;12.50;99.90;;;;;;5004344;28;20036;-54
2022/11/06 10:50:14;;;;;;;5.88;5.22;;;12.40;99.90;;;;;;5049782;28;20060;-52
2022/11/06 10:53:14;;;;;;;5.35;4.00;;;12.30;99.90;;;;;;5019294;28;20504;-53
2022/11/06 10:56:07;;;;;;;5.47;4.60;;;12.20;99.90;;;;;;5043167;28;20037;-55
2022/11/06 10:58:33;;;;;;;6.10;5.50;;;12.20;99.90;;;;;;5047332;28;20045;-53
2022/11/06 11:01:03;;;;;;;6.10;4.47;;;12.30;99.90;;;;;;5057207;28;20055;-53
2022/11/06 11:03:50;;;;;;;6.93;5.93;;;12.00;99.90;;;;;;5067892;28;20021;-55
2022/11/06 11:06:16;;;;;;;9.32;6.35;;;12.10;99.90;;;;;;5074608;28;20424;-55
2022/11/06 11:08:47;;;;;;;11.73;9.20;;;12.10;99.90;;;;;;5070773;28;20042;-55
2022/11/06 11:11:12;;;;;;;7.35;6.43;;;12.10;99.90;;;;;;5069119;28;20035;-54
2022/11/06 11:14:01;;;;;;;10.38;7.53;;;12.20;99.90;;;;;;5065699;28;20115;-54
2022/11/06 11:16:54;;;;;;;12.23;10.07;;;12.30;99.90;;;;;;4994806;28;20034;-54
2022/11/06 11:19:25;;;;;;;;;;;12.30;99.90;;;;;;5009806;28;20119;-55
2022/11/06 11:21:57;;;;;;;5.30;4.22;;;12.10;99.90;;;;;;5008210;28;19906;-54
2022/11/06 11:24:23;;;;;;;18.17;12.05;;;12.00;99.90;;;;;;5000292;28;20109;-53
2022/11/06 11:26:53;;;;;;;10.50;8.35;;;12.10;99.90;;;;;;4991534;28;20085;-54
2022/11/06 11:29:28;;;;;;;10.13;8.73;;;12.10;99.90;;;;;;4975206;28;20034;-55
2022/11/06 11:31:57;;;;;;;13.77;11.10;;;12.20;99.90;;;;;;4974883;28;20034;-52
2022/11/06 11:34:29;;;;;;;8.90;7.07;;;12.20;99.90;;;;;;5002373;28;20038;-52
2022/11/06 11:36:59;;;;;;;10.82;8.50;;;12.30;99.90;;;;;;4988797;28;20038;-53
2022/11/06 11:39:33;;;;;;;10.85;8.77;;;12.10;99.90;;;;;;4991321;28;20030;-53
2022/11/06 11:42:23;;;;;;;10.45;8.30;;;12.20;99.90;;;;;;4989096;28;20030;-53
2022/11/06 11:45:07;;;;;;;7.13;6.38;;;12.20;99.90;;;;;;4991226;28;20613;-55
2022/11/06 11:47:33;;;;;;;7.93;7.13;;;12.20;99.90;;;;;;4991132;28;20030;-55
2022/11/06 11:50:20;;;;;;;6.78;6.07;;;12.10;99.90;;;;;;4991359;28;20530;-53
2022/11/06 11:52:50;;;;;;;7.50;5.43;;;12.00;99.90;;;;;;5018483;28;20071;-55
2022/11/06 11:55:18;;;;;;;5.15;4.50;;;11.90;99.90;;;;;;5072457;28;20020;-55
2022/11/06 11:57:47;;;;;;;6.97;5.68;;;12.00;99.90;;;;;;5064360;28;20473;-55
2022/11/06 12:00:21;;;;;;;6.57;5.18;;;12.00;99.90;;;;;;5063172;28;20120;-55
2022/11/06 12:02:48;;;;;;;7.15;6.00;;;12.00;99.90;;;;;;5062745;28;20017;-55
2022/11/06 12:05:19;;;;;;;7.72;5.28;;;12.10;99.90;;;;;;5062315;28;20073;-53
2022/11/06 12:07:55;;;;;;;7.47;6.38;;;12.00;99.90;;;;;;5061399;28;20028;-53
2022/11/06 12:10:35;;;;;;;6.47;5.28;;;12.00;99.90;;;;;;5025422;28;20480;-53
2022/11/06 12:13:17;;;;;;;9.80;8.55;;;12.00;99.90;;;;;;5060627;28;20021;-55
2022/11/06 12:15:50;;;;;;;10.27;9.07;;;12.30;99.90;;;;;;5060990;28;20044;-54
2022/11/06 12:18:21;;;;;;;10.40;9.35;;;12.30;99.90;;;;;;5060632;28;20074;-52
2022/11/06 12:21:11;;;;;;;13.70;9.63;;;12.50;99.90;;;;;;5069803;28;20035;-53
2022/11/06 12:23:42;;;;;;;10.05;7.63;;;12.50;99.90;;;;;;5072176;28;20028;-55
2022/11/06 12:26:19;;;;;;;11.27;9.00;;;12.40;99.90;;;;;;5072199;28;20025;-54
2022/11/06 12:28:48;;;;;;;11.05;9.40;;;12.50;99.90;;;;;;5069940;28;20435;-54
2022/11/06 12:31:31;;;;;;;10.25;8.23;;;12.50;99.90;;;;;;5071724;28;20028;-53
2022/11/06 12:33:58;;;;;;;9.30;8.25;;;12.40;99.90;;;;;;5072162;28;20064;-52
2022/11/06 12:36:26;;;;;;;10.27;9.10;;;12.40;99.90;;;;;;5072228;28;20035;-52
2022/11/06 12:38:58;;;;;;;12.38;9.55;;;12.40;99.90;;;;;;5072053;28;20656;-54
2022/11/06 12:41:39;;;;;;;9.75;8.75;;;12.40;99.90;;;;;;5070024;28;20047;-52
2022/11/06 12:44:09;;;;;;;10.95;9.70;;;12.40;99.90;;;;;;5072021;28;20154;-54
2022/11/06 12:46:43;;;;;;;11.82;10.57;;;12.40;99.90;;;;;;5036638;28;20105;-55
2022/11/06 12:49:20;;;;;;;11.68;9.05;;;12.50;99.90;;;;;;5072023;28;20027;-54
2022/11/06 12:52:10;;;;;;;11.02;8.68;;;12.30;99.90;;;;;;5072104;28;20487;-54
2022/11/06 12:55:20;;;;;;;9.38;8.02;;;12.30;99.90;;;;;;5072027;28;20405;-54
2022/11/06 12:57:56;;;;;;;9.35;7.65;;;12.30;99.90;;;;;;5071939;28;20523;-54
2022/11/06 13:00:53;;;;;;;8.82;5.85;;;12.30;99.90;;;;;;5071826;28;20056;-54
2022/11/06 13:03:34;;;;;;;11.48;9.05;;;12.10;99.90;;;;;;5049359;28;20041;-53
2022/11/06 13:06:18;;;;;;;7.63;6.47;;;12.00;99.90;;;;;;4996340;28;20136;-54
2022/11/06 13:08:49;;;;;;;7.00;4.72;;;12.00;99.90;;;;;;5029644;28;20137;-54
2022/11/06 13:11:37;;;;;;;9.07;7.32;;;11.90;99.90;;;;;;5029466;28;20045;-53
2022/11/06 13:14:16;;;;;;;9.00;7.35;;;12.10;99.90;;;;;;5029462;28;20489;-54